This is the latest recevied weather packets stored in our database for station/object K4ZZR. If no packets are shown the sender has not sent any weather packets the latest 10 day(s).
| Time | Temp. | Humidity | Pressure | Rain* | Wind** | Luminosity | Snow |
|---|---|---|---|---|---|---|---|
| 1777647083 | 26.67° C | 79% | 1012.6 hPa | 0 mm | - | 319 W/m² | - |
| 1777646779 | 27.22° C | 77% | 1012.7 hPa | 0 mm | - | 264 W/m² | - |
| 1777646479 | 27.78° C | 77% | 1012.8 hPa | 0 mm | - | 862 W/m² | - |
| 1777646175 | 27.78° C | 77% | 1013 hPa | 0 mm | - | 806 W/m² | - |
| 1777645873 | 27.78° C | 77% | 1013 hPa | 0 mm | - | 769 W/m² | - |
| 1777645570 | 26.11° C | 81% | 1013 hPa | 0 mm | - | 358 W/m² | - |
| 1777645266 | 27.22° C | 80% | 1013 hPa | 0 mm | - | 614 W/m² | - |
| 1777644961 | 26.67° C | 79% | 1012.9 hPa | 0 mm | - | 739 W/m² | - |
| 1777644660 | 26.11° C | 83% | 1012.9 hPa | 0 mm | - | 744 W/m² | - |
| 1777644355 | 26.67° C | 80% | 1012.9 hPa | 0 mm | - | 238 W/m² | - |
| 1777644051 | 26.67° C | 81% | 1012.9 hPa | 0 mm | - | 673 W/m² | - |
| 1777643748 | 26.67° C | 82% | 1013 hPa | 0 mm | - | 640 W/m² | - |
| 1777643446 | 26.11° C | 84% | 1012.8 hPa | 0 mm | - | 618 W/m² | - |
| 1777643143 | 26.11° C | 84% | 1012.8 hPa | 0 mm | - | 330 W/m² | - |
| 1777642839 | 26.11° C | 85% | 1012.8 hPa | 0 mm | - | 556 W/m² | - |
| 1777642537 | 25.56° C | 87% | 1012.7 hPa | 0 mm | - | 519 W/m² | - |
| 1777642233 | 25.56° C | 86% | 1012.9 hPa | 0 mm | - | 493 W/m² | - |
| 1777641930 | 25.56° C | 87% | 1012.8 hPa | 0 mm | - | 351 W/m² | - |
| 1777641625 | 25° C | 89% | 1012.9 hPa | 0 mm | - | 426 W/m² | - |
| 1777641320 | 24.44° C | 91% | 1012.7 hPa | 0 mm | - | 216 W/m² | - |
| 1777641016 | 24.44° C | 91% | 1012.7 hPa | 0 mm | - | 189 W/m² | - |
| 1777640713 | 23.89° C | 92% | 1012.3 hPa | 0 mm | - | 152 W/m² | - |
| 1777640410 | 24.44° C | 91% | 1012.4 hPa | 0 mm | - | 133 W/m² | - |
| 1777640107 | 24.44° C | 90% | 1012.2 hPa | 0 mm | - | 309 W/m² | - |
| 1777639803 | 24.44° C | 91% | 1012.3 hPa | 0 mm | - | 220 W/m² | - |
* Rain latest hour (hover to see other rain measurements)
** Current wind speed in m/s (hover to see current wind gust speed)